sensor_id;sensor_type;location;lat;lon;timestamp;pressure;altitude;pressure_sealevel;temperature
60615;BMP280;46444;45.590;5.284;2022-12-10T00:02:02;97615.31;;;4.73
60615;BMP280;46444;45.590;5.284;2022-12-10T00:04:28;97618.78;;;4.73
60615;BMP280;46444;45.590;5.284;2022-12-10T00:06:53;97614.72;;;4.59
60615;BMP280;46444;45.590;5.284;2022-12-10T00:09:20;97613.56;;;4.55
60615;BMP280;46444;45.590;5.284;2022-12-10T00:11:48;97625.59;;;4.40
60615;BMP280;46444;45.590;5.284;2022-12-10T00:14:17;97617.34;;;4.48
60615;BMP280;46444;45.590;5.284;2022-12-10T00:16:42;97621.34;;;4.39
60615;BMP280;46444;45.590;5.284;2022-12-10T00:19:08;97624.88;;;4.33
60615;BMP280;46444;45.590;5.284;2022-12-10T00:21:35;97625.91;;;4.32
60615;BMP280;46444;45.590;5.284;2022-12-10T00:24:02;97627.38;;;4.28
60615;BMP280;46444;45.590;5.284;2022-12-10T00:26:31;97622.59;;;4.36
60615;BMP280;46444;45.590;5.284;2022-12-10T00:28:57;97625.69;;;4.33
60615;BMP280;46444;45.590;5.284;2022-12-10T00:31:29;97630.16;;;4.33
60615;BMP280;46444;45.590;5.284;2022-12-10T00:33:59;97622.63;;;4.18
60615;BMP280;46444;45.590;5.284;2022-12-10T00:36:29;97630.03;;;4.28
60615;BMP280;46444;45.590;5.284;2022-12-10T00:38:59;97630.09;;;4.39
60615;BMP280;46444;45.590;5.284;2022-12-10T00:41:30;97634.19;;;4.35
60615;BMP280;46444;45.590;5.284;2022-12-10T00:43:58;97621.88;;;4.29
60615;BMP280;46444;45.590;5.284;2022-12-10T00:46:27;97632.59;;;4.34
60615;BMP280;46444;45.590;5.284;2022-12-10T00:48:54;97631.22;;;4.43
60615;BMP280;46444;45.590;5.284;2022-12-10T00:51:23;97637.69;;;4.47
60615;BMP280;46444;45.590;5.284;2022-12-10T00:53:54;97621.03;;;4.47
60615;BMP280;46444;45.590;5.284;2022-12-10T00:56:25;97626.63;;;4.39
60615;BMP280;46444;45.590;5.284;2022-12-10T00:58:57;97634.66;;;4.32
60615;BMP280;46444;45.590;5.284;2022-12-10T01:01:36;97628.47;;;4.38
60615;BMP280;46444;45.590;5.284;2022-12-10T01:04:15;97628.56;;;4.43
60615;BMP280;46444;45.590;5.284;2022-12-10T01:06:53;97625.75;;;4.56
60615;BMP280;46444;45.590;5.284;2022-12-10T01:09:24;97626.19;;;4.53
60615;BMP280;46444;45.590;5.284;2022-12-10T01:11:51;97622.16;;;4.51
60615;BMP280;46444;45.590;5.284;2022-12-10T01:14:20;97618.88;;;4.55
60615;BMP280;46444;45.590;5.284;2022-12-10T01:16:48;97618.88;;;4.55
60615;BMP280;46444;45.590;5.284;2022-12-10T01:19:19;97614.22;;;4.39
60615;BMP280;46444;45.590;5.284;2022-12-10T01:21:52;97624.63;;;4.23
60615;BMP280;46444;45.590;5.284;2022-12-10T01:24:22;97633.56;;;4.51
60615;BMP280;46444;45.590;5.284;2022-12-10T01:26:58;97637.69;;;4.47
60615;BMP280;46444;45.590;5.284;2022-12-10T01:29:24;97642.25;;;4.40
60615;BMP280;46444;45.590;5.284;2022-12-10T01:31:54;97646.44;;;4.48
60615;BMP280;46444;45.590;5.284;2022-12-10T01:34:20;97646.97;;;4.38
60615;BMP280;46444;45.590;5.284;2022-12-10T01:36:52;97657.44;;;4.45
60615;BMP280;46444;45.590;5.284;2022-12-10T01:39:20;97653.13;;;4.50
60615;BMP280;46444;45.590;5.284;2022-12-10T01:41:51;97655.84;;;4.44
60615;BMP280;46444;45.590;5.284;2022-12-10T01:46:45;97655.53;;;4.22
60615;BMP280;46444;45.590;5.284;2022-12-10T01:49:16;97667.00;;;4.16
60615;BMP280;46444;45.590;5.284;2022-12-10T01:51:44;97671.81;;;3.90
60615;BMP280;46444;45.590;5.284;2022-12-10T01:54:17;97666.22;;;3.98
60615;BMP280;46444;45.590;5.284;2022-12-10T01:56:45;97671.56;;;4.09
60615;BMP280;46444;45.590;5.284;2022-12-10T01:59:13;97671.81;;;4.19
60615;BMP280;46444;45.590;5.284;2022-12-10T02:01:53;97664.19;;;4.29
60615;BMP280;46444;45.590;5.284;2022-12-10T02:04:35;97659.09;;;4.28
60615;BMP280;46444;45.590;5.284;2022-12-10T02:07:20;97684.69;;;4.16
60615;BMP280;46444;45.590;5.284;2022-12-10T02:09:59;97670.88;;;4.32
60615;BMP280;46444;45.590;5.284;2022-12-10T02:12:38;97681.97;;;4.22
60615;BMP280;46444;45.590;5.284;2022-12-10T02:15:25;97675.31;;;4.31
60615;BMP280;46444;45.590;5.284;2022-12-10T02:18:14;97691.28;;;4.25
60615;BMP280;46444;45.590;5.284;2022-12-10T02:20:47;97690.03;;;4.27
60615;BMP280;46444;45.590;5.284;2022-12-10T02:23:24;97689.91;;;4.22
60615;BMP280;46444;45.590;5.284;2022-12-10T02:26:01;97686.78;;;4.25
60615;BMP280;46444;45.590;5.284;2022-12-10T02:31:29;97684.03;;;4.20
60615;BMP280;46444;45.590;5.284;2022-12-10T02:33:59;97672.44;;;4.21
60615;BMP280;46444;45.590;5.284;2022-12-10T02:36:28;97679.81;;;4.31
60615;BMP280;46444;45.590;5.284;2022-12-10T02:38:56;97692.88;;;3.96
60615;BMP280;46444;45.590;5.284;2022-12-10T02:41:26;97683.59;;;4.23
60615;BMP280;46444;45.590;5.284;2022-12-10T02:43:53;97692.03;;;4.14
60615;BMP280;46444;45.590;5.284;2022-12-10T02:46:21;97692.50;;;4.11
60615;BMP280;46444;45.590;5.284;2022-12-10T02:48:48;97695.22;;;4.04
60615;BMP280;46444;45.590;5.284;2022-12-10T02:51:15;97690.66;;;4.11
60615;BMP280;46444;45.590;5.284;2022-12-10T02:53:44;97697.72;;;3.99
60615;BMP280;46444;45.590;5.284;2022-12-10T02:56:33;97687.66;;;3.90
60615;BMP280;46444;45.590;5.284;2022-12-10T03:07:34;97679.28;;;4.11
60615;BMP280;46444;45.590;5.284;2022-12-10T03:10:10;97687.31;;;4.16
60615;BMP280;46444;45.590;5.284;2022-12-10T03:12:42;97675.16;;;4.15
60615;BMP280;46444;45.590;5.284;2022-12-10T03:15:10;97672.00;;;4.06
60615;BMP280;46444;45.590;5.284;2022-12-10T03:17:37;97679.06;;;3.94
60615;BMP280;46444;45.590;5.284;2022-12-10T03:20:06;97676.19;;;3.96
60615;BMP280;46444;45.590;5.284;2022-12-10T03:22:33;97674.81;;;3.75
60615;BMP280;46444;45.590;5.284;2022-12-10T03:25:00;97672.69;;;3.66
60615;BMP280;46444;45.590;5.284;2022-12-10T03:27:29;97680.31;;;3.74
60615;BMP280;46444;45.590;5.284;2022-12-10T03:29:56;97675.84;;;3.56
60615;BMP280;46444;45.590;5.284;2022-12-10T03:32:25;97669.63;;;3.87
60615;BMP280;46444;45.590;5.284;2022-12-10T03:34:53;97674.50;;;3.83
60615;BMP280;46444;45.590;5.284;2022-12-10T03:37:21;97669.47;;;3.64
60615;BMP280;46444;45.590;5.284;2022-12-10T03:39:47;97678.13;;;3.71
60615;BMP280;46444;45.590;5.284;2022-12-10T03:42:12;97681.28;;;3.79
60615;BMP280;46444;45.590;5.284;2022-12-10T03:44:38;97676.78;;;3.80
60615;BMP280;46444;45.590;5.284;2022-12-10T03:47:07;97681.84;;;3.63
60615;BMP280;46444;45.590;5.284;2022-12-10T03:49:35;97685.22;;;3.88
60615;BMP280;46444;45.590;5.284;2022-12-10T03:52:01;97701.53;;;3.85
60615;BMP280;46444;45.590;5.284;2022-12-10T03:54:26;97697.13;;;3.79
60615;BMP280;46444;45.590;5.284;2022-12-10T03:56:52;97704.75;;;3.69
60615;BMP280;46444;45.590;5.284;2022-12-10T03:59:17;97695.38;;;3.73
60615;BMP280;46444;45.590;5.284;2022-12-10T04:01:44;97713.25;;;3.71
60615;BMP280;46444;45.590;5.284;2022-12-10T04:04:10;97716.19;;;3.63
60615;BMP280;46444;45.590;5.284;2022-12-10T04:06:40;97714.38;;;3.64
60615;BMP280;46444;45.590;5.284;2022-12-10T04:09:06;97715.53;;;3.68
60615;BMP280;46444;45.590;5.284;2022-12-10T04:11:31;97710.03;;;3.51
60615;BMP280;46444;45.590;5.284;2022-12-10T04:13:57;97711.84;;;3.69
60615;BMP280;46444;45.590;5.284;2022-12-10T04:16:41;97729.97;;;3.65
60615;BMP280;46444;45.590;5.284;2022-12-10T04:19:11;97743.56;;;3.26
60615;BMP280;46444;45.590;5.284;2022-12-10T04:21:38;97731.84;;;3.40
60615;BMP280;46444;45.590;5.284;2022-12-10T04:24:25;97746.13;;;3.57
60615;BMP280;46444;45.590;5.284;2022-12-10T04:27:12;97742.56;;;3.45
60615;BMP280;46444;45.590;5.284;2022-12-10T04:29:39;97753.59;;;3.42
60615;BMP280;46444;45.590;5.284;2022-12-10T04:32:04;97750.44;;;3.52
60615;BMP280;46444;45.590;5.284;2022-12-10T04:34:30;97752.28;;;3.51
60615;BMP280;46444;45.590;5.284;2022-12-10T04:36:57;97760.22;;;3.45
60615;BMP280;46444;45.590;5.284;2022-12-10T04:39:23;97763.00;;;3.32
60615;BMP280;46444;45.590;5.284;2022-12-10T04:41:49;97764.16;;;3.42
60615;BMP280;46444;45.590;5.284;2022-12-10T04:44:15;97763.38;;;3.35
60615;BMP280;46444;45.590;5.284;2022-12-10T04:46:40;97766.81;;;3.36
60615;BMP280;46444;45.590;5.284;2022-12-10T04:49:06;97768.44;;;3.37
60615;BMP280;46444;45.590;5.284;2022-12-10T04:51:31;97756.63;;;3.39
60615;BMP280;46444;45.590;5.284;2022-12-10T04:53:57;97765.78;;;3.37
60615;BMP280;46444;45.590;5.284;2022-12-10T04:56:23;97767.00;;;3.41
60615;BMP280;46444;45.590;5.284;2022-12-10T04:58:48;97775.88;;;3.46
60615;BMP280;46444;45.590;5.284;2022-12-10T05:01:13;97767.72;;;3.23
60615;BMP280;46444;45.590;5.284;2022-12-10T05:03:40;97775.50;;;3.43
60615;BMP280;46444;45.590;5.284;2022-12-10T05:06:10;97779.44;;;3.34
60615;BMP280;46444;45.590;5.284;2022-12-10T05:08:37;97780.41;;;3.39
60615;BMP280;46444;45.590;5.284;2022-12-10T05:11:05;97787.75;;;3.37
60615;BMP280;46444;45.590;5.284;2022-12-10T05:13:31;97790.31;;;3.19
60615;BMP280;46444;45.590;5.284;2022-12-10T05:15:56;97792.69;;;3.27
60615;BMP280;46444;45.590;5.284;2022-12-10T05:18:22;97798.06;;;3.14
60615;BMP280;46444;45.590;5.284;2022-12-10T05:20:47;97794.28;;;3.28
60615;BMP280;46444;45.590;5.284;2022-12-10T05:23:13;97805.03;;;3.33
60615;BMP280;46444;45.590;5.284;2022-12-10T05:28:29;97812.19;;;3.26
60615;BMP280;46444;45.590;5.284;2022-12-10T05:30:55;97815.31;;;3.17
60615;BMP280;46444;45.590;5.284;2022-12-10T05:33:21;97813.44;;;3.17
60615;BMP280;46444;45.590;5.284;2022-12-10T05:36:01;97821.78;;;3.45
60615;BMP280;46444;45.590;5.284;2022-12-10T05:38:28;97819.91;;;3.28
60615;BMP280;46444;45.590;5.284;2022-12-10T05:40:54;97818.59;;;3.37
60615;BMP280;46444;45.590;5.284;2022-12-10T05:43:20;97819.59;;;3.42
60615;BMP280;46444;45.590;5.284;2022-12-10T05:45:46;97824.47;;;3.39
60615;BMP280;46444;45.590;5.284;2022-12-10T05:48:13;97826.53;;;3.37
60615;BMP280;46444;45.590;5.284;2022-12-10T05:50:40;97831.53;;;3.45
60615;BMP280;46444;45.590;5.284;2022-12-10T05:53:06;97830.50;;;3.21
60615;BMP280;46444;45.590;5.284;2022-12-10T05:55:32;97825.78;;;3.23
60615;BMP280;46444;45.590;5.284;2022-12-10T05:57:59;97843.56;;;3.10
60615;BMP280;46444;45.590;5.284;2022-12-10T06:00:25;97834.06;;;3.02
60615;BMP280;46444;45.590;5.284;2022-12-10T06:02:50;97832.47;;;3.26
60615;BMP280;46444;45.590;5.284;2022-12-10T06:05:16;97836.53;;;3.28
60615;BMP280;46444;45.590;5.284;2022-12-10T06:07:41;97842.25;;;3.25
60615;BMP280;46444;45.590;5.284;2022-12-10T06:10:07;97839.34;;;3.33
60615;BMP280;46444;45.590;5.284;2022-12-10T06:12:33;97844.53;;;3.46
60615;BMP280;46444;45.590;5.284;2022-12-10T06:14:58;97843.03;;;3.26
60615;BMP280;46444;45.590;5.284;2022-12-10T06:17:24;97844.03;;;3.31
60615;BMP280;46444;45.590;5.284;2022-12-10T06:19:49;97860.09;;;3.23
60615;BMP280;46444;45.590;5.284;2022-12-10T06:22:14;97848.28;;;3.32
60615;BMP280;46444;45.590;5.284;2022-12-10T06:24:40;97859.19;;;3.42
60615;BMP280;46444;45.590;5.284;2022-12-10T06:27:05;97856.16;;;3.39
60615;BMP280;46444;45.590;5.284;2022-12-10T06:29:30;97873.06;;;3.31
60615;BMP280;46444;45.590;5.284;2022-12-10T06:31:56;97883.56;;;3.38
60615;BMP280;46444;45.590;5.284;2022-12-10T06:34:21;97883.38;;;3.39
60615;BMP280;46444;45.590;5.284;2022-12-10T06:36:47;97874.81;;;3.44
60615;BMP280;46444;45.590;5.284;2022-12-10T06:39:12;97873.78;;;3.45
60615;BMP280;46444;45.590;5.284;2022-12-10T06:41:38;97881.06;;;3.49
60615;BMP280;46444;45.590;5.284;2022-12-10T06:44:07;97884.88;;;3.53
60615;BMP280;46444;45.590;5.284;2022-12-10T06:46:32;97884.44;;;3.32
60615;BMP280;46444;45.590;5.284;2022-12-10T06:48:58;97892.31;;;3.38
60615;BMP280;46444;45.590;5.284;2022-12-10T06:51:24;97895.53;;;3.40
60615;BMP280;46444;45.590;5.284;2022-12-10T06:53:50;97893.84;;;3.15
60615;BMP280;46444;45.590;5.284;2022-12-10T06:56:17;97893.84;;;3.21
60615;BMP280;46444;45.590;5.284;2022-12-10T06:58:44;97885.16;;;3.45
60615;BMP280;46444;45.590;5.284;2022-12-10T07:01:15;97901.03;;;3.39
60615;BMP280;46444;45.590;5.284;2022-12-10T07:03:42;97902.78;;;3.20
60615;BMP280;46444;45.590;5.284;2022-12-10T07:06:09;97905.53;;;3.32
60615;BMP280;46444;45.590;5.284;2022-12-10T07:08:36;97906.81;;;3.23
60615;BMP280;46444;45.590;5.284;2022-12-10T07:11:09;97912.78;;;3.43
60615;BMP280;46444;45.590;5.284;2022-12-10T07:13:35;97919.94;;;3.42
60615;BMP280;46444;45.590;5.284;2022-12-10T07:16:01;97913.19;;;3.46
60615;BMP280;46444;45.590;5.284;2022-12-10T07:18:26;97924.00;;;3.38
60615;BMP280;46444;45.590;5.284;2022-12-10T07:20:52;97929.78;;;3.53
60615;BMP280;46444;45.590;5.284;2022-12-10T07:23:18;97939.88;;;3.32
60615;BMP280;46444;45.590;5.284;2022-12-10T07:25:43;97932.09;;;3.43
60615;BMP280;46444;45.590;5.284;2022-12-10T07:28:08;97934.47;;;3.51
60615;BMP280;46444;45.590;5.284;2022-12-10T07:30:34;97946.91;;;3.44
60615;BMP280;46444;45.590;5.284;2022-12-10T07:32:59;97942.69;;;3.37
60615;BMP280;46444;45.590;5.284;2022-12-10T07:35:24;97941.63;;;3.44
60615;BMP280;46444;45.590;5.284;2022-12-10T07:37:50;97964.53;;;3.06
60615;BMP280;46444;45.590;5.284;2022-12-10T07:40:16;97955.50;;;3.33
60615;BMP280;46444;45.590;5.284;2022-12-10T07:42:41;97973.44;;;3.18
60615;BMP280;46444;45.590;5.284;2022-12-10T07:45:07;97965.09;;;3.21
60615;BMP280;46444;45.590;5.284;2022-12-10T07:47:35;97964.13;;;3.09
60615;BMP280;46444;45.590;5.284;2022-12-10T07:50:01;97965.38;;;3.00
60615;BMP280;46444;45.590;5.284;2022-12-10T07:52:26;97964.53;;;3.06
60615;BMP280;46444;45.590;5.284;2022-12-10T07:54:51;97980.94;;;3.21
60615;BMP280;46444;45.590;5.284;2022-12-10T07:57:17;97976.63;;;3.33
60615;BMP280;46444;45.590;5.284;2022-12-10T07:59:42;97983.69;;;3.39
60615;BMP280;46444;45.590;5.284;2022-12-10T08:02:08;97988.72;;;3.47
60615;BMP280;46444;45.590;5.284;2022-12-10T08:04:34;97990.03;;;3.32
60615;BMP280;46444;45.590;5.284;2022-12-10T08:06:59;97997.69;;;3.46
60615;BMP280;46444;45.590;5.284;2022-12-10T08:09:24;97995.25;;;3.45
60615;BMP280;46444;45.590;5.284;2022-12-10T08:11:50;98000.19;;;3.35
60615;BMP280;46444;45.590;5.284;2022-12-10T08:14:15;98004.63;;;3.34
60615;BMP280;46444;45.590;5.284;2022-12-10T08:16:40;98002.63;;;3.36
60615;BMP280;46444;45.590;5.284;2022-12-10T08:19:06;98010.59;;;3.17
60615;BMP280;46444;45.590;5.284;2022-12-10T08:21:32;98007.00;;;2.98
60615;BMP280;46444;45.590;5.284;2022-12-10T08:23:57;98017.31;;;3.06
60615;BMP280;46444;45.590;5.284;2022-12-10T08:26:26;98011.66;;;3.09
60615;BMP280;46444;45.590;5.284;2022-12-10T08:28:53;98010.47;;;2.99
60615;BMP280;46444;45.590;5.284;2022-12-10T08:31:20;98013.91;;;2.99
60615;BMP280;46444;45.590;5.284;2022-12-10T08:33:46;98021.84;;;2.86
60615;BMP280;46444;45.590;5.284;2022-12-10T08:36:13;98026.25;;;3.12
60615;BMP280;46444;45.590;5.284;2022-12-10T08:38:40;98032.13;;;3.20
60615;BMP280;46444;45.590;5.284;2022-12-10T08:41:11;98034.94;;;3.25
60615;BMP280;46444;45.590;5.284;2022-12-10T08:43:37;98038.78;;;3.29
60615;BMP280;46444;45.590;5.284;2022-12-10T08:46:02;98037.56;;;3.32
60615;BMP280;46444;45.590;5.284;2022-12-10T08:48:28;98039.22;;;3.20
60615;BMP280;46444;45.590;5.284;2022-12-10T08:50:54;98039.59;;;3.23
60615;BMP280;46444;45.590;5.284;2022-12-10T08:53:19;98038.81;;;3.23
60615;BMP280;46444;45.590;5.284;2022-12-10T08:55:44;98040.44;;;3.24
60615;BMP280;46444;45.590;5.284;2022-12-10T08:58:09;98040.03;;;3.20
60615;BMP280;46444;45.590;5.284;2022-12-10T09:00:36;98051.38;;;3.27
60615;BMP280;46444;45.590;5.284;2022-12-10T09:03:02;98054.16;;;3.45
60615;BMP280;46444;45.590;5.284;2022-12-10T09:05:27;98060.47;;;3.44
60615;BMP280;46444;45.590;5.284;2022-12-10T09:07:53;98050.53;;;3.33
60615;BMP280;46444;45.590;5.284;2022-12-10T09:10:18;98053.00;;;3.28
60615;BMP280;46444;45.590;5.284;2022-12-10T09:12:43;98060.91;;;3.35
60615;BMP280;46444;45.590;5.284;2022-12-10T09:15:09;98054.59;;;3.42
60615;BMP280;46444;45.590;5.284;2022-12-10T09:17:36;98058.66;;;3.38
60615;BMP280;46444;45.590;5.284;2022-12-10T09:20:03;98072.41;;;3.53
60615;BMP280;46444;45.590;5.284;2022-12-10T09:22:29;98077.47;;;3.55
60615;BMP280;46444;45.590;5.284;2022-12-10T09:24:54;98076.84;;;3.59
60615;BMP280;46444;45.590;5.284;2022-12-10T09:27:19;98073.06;;;3.42
60615;BMP280;46444;45.590;5.284;2022-12-10T09:29:45;98064.47;;;3.60
60615;BMP280;46444;45.590;5.284;2022-12-10T09:32:11;98073.59;;;3.57
60615;BMP280;46444;45.590;5.284;2022-12-10T09:34:36;98078.50;;;3.54
60615;BMP280;46444;45.590;5.284;2022-12-10T09:37:02;98073.41;;;3.59
60615;BMP280;46444;45.590;5.284;2022-12-10T09:39:27;98076.50;;;3.49
60615;BMP280;46444;45.590;5.284;2022-12-10T09:47:16;98081.53;;;3.57
60615;BMP280;46444;45.590;5.284;2022-12-10T09:49:58;98071.22;;;3.49
60615;BMP280;46444;45.590;5.284;2022-12-10T09:52:34;98078.66;;;3.65
60615;BMP280;46444;45.590;5.284;2022-12-10T09:55:05;98087.47;;;3.46
60615;BMP280;46444;45.590;5.284;2022-12-10T09:57:41;98076.91;;;3.46
60615;BMP280;46444;45.590;5.284;2022-12-10T10:02:56;98083.78;;;3.60
60615;BMP280;46444;45.590;5.284;2022-12-10T10:05:29;98083.78;;;3.54
60615;BMP280;46444;45.590;5.284;2022-12-10T10:07:57;98081.72;;;3.62
60615;BMP280;46444;45.590;5.284;2022-12-10T10:10:30;98089.38;;;3.77
60615;BMP280;46444;45.590;5.284;2022-12-10T10:13:35;98088.88;;;3.55
60615;BMP280;46444;45.590;5.284;2022-12-10T10:16:16;98087.38;;;3.72
60615;BMP280;46444;45.590;5.284;2022-12-10T10:18:46;98101.25;;;3.61
60615;BMP280;46444;45.590;5.284;2022-12-10T10:21:21;98100.47;;;3.48
60615;BMP280;46444;45.590;5.284;2022-12-10T10:23:47;98091.84;;;3.65
60615;BMP280;46444;45.590;5.284;2022-12-10T10:26:13;98093.91;;;3.63
60615;BMP280;46444;45.590;5.284;2022-12-10T10:28:40;98101.25;;;3.55
60615;BMP280;46444;45.590;5.284;2022-12-10T10:31:18;98099.63;;;3.47
60615;BMP280;46444;45.590;5.284;2022-12-10T10:34:06;98097.38;;;3.57
60615;BMP280;46444;45.590;5.284;2022-12-10T10:36:34;98096.25;;;3.34
60615;BMP280;46444;45.590;5.284;2022-12-10T10:41:40;98094.81;;;3.38
60615;BMP280;46444;45.590;5.284;2022-12-10T10:44:16;98110.19;;;3.47
60615;BMP280;46444;45.590;5.284;2022-12-10T10:46:45;98095.97;;;3.55
60615;BMP280;46444;45.590;5.284;2022-12-10T10:49:21;98104.72;;;3.49
60615;BMP280;46444;45.590;5.284;2022-12-10T10:51:47;98104.47;;;3.63
60615;BMP280;46444;45.590;5.284;2022-12-10T10:54:31;98104.84;;;3.67
60615;BMP280;46444;45.590;5.284;2022-12-10T10:56:57;98099.38;;;3.62
60615;BMP280;46444;45.590;5.284;2022-12-10T10:59:32;98105.19;;;3.20
60615;BMP280;46444;45.590;5.284;2022-12-10T11:02:17;98106.97;;;3.45
60615;BMP280;46444;45.590;5.284;2022-12-10T11:04:47;98116.34;;;3.35
60615;BMP280;46444;45.590;5.284;2022-12-10T11:09:53;98120.25;;;3.19
60615;BMP280;46444;45.590;5.284;2022-12-10T11:12:36;98106.97;;;3.52
60615;BMP280;46444;45.590;5.284;2022-12-10T11:15:54;98109.47;;;3.34
60615;BMP280;46444;45.590;5.284;2022-12-10T11:17:50;98117.88;;;3.62
60615;BMP280;46444;45.590;5.284;2022-12-10T11:20:22;98113.59;;;3.67
60615;BMP280;46444;45.590;5.284;2022-12-10T11:22:54;98120.56;;;3.55
60615;BMP280;46444;45.590;5.284;2022-12-10T11:25:48;98118.66;;;3.75
60615;BMP280;46444;45.590;5.284;2022-12-10T11:36:38;98115.84;;;3.64
60615;BMP280;46444;45.590;5.284;2022-12-10T11:39:32;98108.09;;;3.69
60615;BMP280;46444;45.590;5.284;2022-12-10T11:52:31;98100.09;;;3.88
60615;BMP280;46444;45.590;5.284;2022-12-10T11:58:01;98111.44;;;3.95
60615;BMP280;46444;45.590;5.284;2022-12-10T12:00:46;98112.50;;;3.88
60615;BMP280;46444;45.590;5.284;2022-12-10T12:09:03;98121.78;;;4.03
60615;BMP280;46444;45.590;5.284;2022-12-10T12:14:10;98129.72;;;4.03
60615;BMP280;46444;45.590;5.284;2022-12-10T12:16:55;98130.78;;;3.89
60615;BMP280;46444;45.590;5.284;2022-12-10T12:19:37;98126.97;;;3.79
60615;BMP280;46444;45.590;5.284;2022-12-10T12:22:24;98136.13;;;3.76
60615;BMP280;46444;45.590;5.284;2022-12-10T12:24:55;98139.41;;;3.65
60615;BMP280;46444;45.590;5.284;2022-12-10T12:27:39;98142.03;;;3.65
60615;BMP280;46444;45.590;5.284;2022-12-10T12:30:21;98138.22;;;3.55
60615;BMP280;46444;45.590;5.284;2022-12-10T12:33:10;98139.09;;;3.29
60615;BMP280;46444;45.590;5.284;2022-12-10T12:35:43;98153.72;;;3.38
60615;BMP280;46444;45.590;5.284;2022-12-10T12:40:43;98165.50;;;3.42
60615;BMP280;46444;45.590;5.284;2022-12-10T12:43:17;98154.91;;;3.55
60615;BMP280;46444;45.590;5.284;2022-12-10T12:45:47;98154.06;;;3.55
60615;BMP280;46444;45.590;5.284;2022-12-10T12:48:52;98157.53;;;3.55
60615;BMP280;46444;45.590;5.284;2022-12-10T12:51:33;98164.47;;;3.37
60615;BMP280;46444;45.590;5.284;2022-12-10T12:54:01;98171.94;;;3.59
60615;BMP280;46444;45.590;5.284;2022-12-10T13:01:53;98172.34;;;3.56
60615;BMP280;46444;45.590;5.284;2022-12-10T13:04:22;98183.31;;;3.53
60615;BMP280;46444;45.590;5.284;2022-12-10T13:09:49;98183.97;;;3.36
60615;BMP280;46444;45.590;5.284;2022-12-10T13:17:27;98175.97;;;3.68
60615;BMP280;46444;45.590;5.284;2022-12-10T13:19:54;98176.56;;;3.70
60615;BMP280;46444;45.590;5.284;2022-12-10T13:22:43;98171.69;;;3.74
60615;BMP280;46444;45.590;5.284;2022-12-10T13:25:18;98173.94;;;3.70
60615;BMP280;46444;45.590;5.284;2022-12-10T13:27:55;98181.22;;;3.75
60615;BMP280;46444;45.590;5.284;2022-12-10T13:30:35;98187.94;;;3.77
60615;BMP280;46444;45.590;5.284;2022-12-10T13:33:17;98192.28;;;3.52
60615;BMP280;46444;45.590;5.284;2022-12-10T13:36:09;98188.22;;;3.56
60615;BMP280;46444;45.590;5.284;2022-12-10T13:38:40;98190.22;;;3.61
60615;BMP280;46444;45.590;5.284;2022-12-10T13:41:07;98186.94;;;3.65
60615;BMP280;46444;45.590;5.284;2022-12-10T13:43:53;98187.84;;;3.33
60615;BMP280;46444;45.590;5.284;2022-12-10T13:47:00;98185.59;;;3.43
60615;BMP280;46444;45.590;5.284;2022-12-10T13:49:30;98189.81;;;3.57
60615;BMP280;46444;45.590;5.284;2022-12-10T13:52:05;98191.47;;;3.52
60615;BMP280;46444;45.590;5.284;2022-12-10T14:00:21;98203.03;;;3.57
60615;BMP280;46444;45.590;5.284;2022-12-10T14:08:03;98217.91;;;3.32
60615;BMP280;46444;45.590;5.284;2022-12-10T14:10:33;98218.28;;;3.29
60615;BMP280;46444;45.590;5.284;2022-12-10T14:13:00;98215.47;;;3.24
60615;BMP280;46444;45.590;5.284;2022-12-10T14:15:27;98215.47;;;3.18
60615;BMP280;46444;45.590;5.284;2022-12-10T14:18:16;98213.41;;;3.39
60615;BMP280;46444;45.590;5.284;2022-12-10T14:20:47;98217.69;;;3.21
60615;BMP280;46444;45.590;5.284;2022-12-10T14:23:26;98202.25;;;3.11
60615;BMP280;46444;45.590;5.284;2022-12-10T14:25:58;98219.53;;;3.07
60615;BMP280;46444;45.590;5.284;2022-12-10T14:28:24;98226.03;;;3.18
60615;BMP280;46444;45.590;5.284;2022-12-10T14:30:50;98214.44;;;3.12
60615;BMP280;46444;45.590;5.284;2022-12-10T14:33:17;98229.69;;;3.23
60615;BMP280;46444;45.590;5.284;2022-12-10T14:35:47;98232.13;;;3.31
60615;BMP280;46444;45.590;5.284;2022-12-10T14:38:25;98232.13;;;3.25
60615;BMP280;46444;45.590;5.284;2022-12-10T14:40:53;98234.75;;;3.44
60615;BMP280;46444;45.590;5.284;2022-12-10T14:43:27;98229.03;;;3.47
60615;BMP280;46444;45.590;5.284;2022-12-10T14:45:59;98223.56;;;3.49
60615;BMP280;46444;45.590;5.284;2022-12-10T14:48:25;98230.69;;;3.35
60615;BMP280;46444;45.590;5.284;2022-12-10T14:50:51;98235.78;;;3.30
60615;BMP280;46444;45.590;5.284;2022-12-10T14:53:24;98237.81;;;3.28
60615;BMP280;46444;45.590;5.284;2022-12-10T14:55:53;98237.81;;;3.35
60615;BMP280;46444;45.590;5.284;2022-12-10T14:58:29;98241.25;;;3.35
60615;BMP280;46444;45.590;5.284;2022-12-10T15:00:55;98244.09;;;3.34
60615;BMP280;46444;45.590;5.284;2022-12-10T15:03:32;98247.75;;;3.39
60615;BMP280;46444;45.590;5.284;2022-12-10T15:06:01;98257.91;;;3.42
60615;BMP280;46444;45.590;5.284;2022-12-10T15:08:28;98253.03;;;3.39
60615;BMP280;46444;45.590;5.284;2022-12-10T15:10:58;98261.97;;;3.51
60615;BMP280;46444;45.590;5.284;2022-12-10T15:13:33;98258.31;;;3.39
60615;BMP280;46444;45.590;5.284;2022-12-10T15:16:00;98266.22;;;3.39
60615;BMP280;46444;45.590;5.284;2022-12-10T15:18:38;98265.63;;;3.37
60615;BMP280;46444;45.590;5.284;2022-12-10T15:21:21;98265.03;;;3.48
60615;BMP280;46444;45.590;5.284;2022-12-10T15:23:47;98270.28;;;3.22
60615;BMP280;46444;45.590;5.284;2022-12-10T15:26:20;98269.47;;;3.28
60615;BMP280;46444;45.590;5.284;2022-12-10T15:28:47;98269.06;;;2.92
60615;BMP280;46444;45.590;5.284;2022-12-10T15:33:58;98259.56;;;3.30
60615;BMP280;46444;45.590;5.284;2022-12-10T15:36:41;98259.72;;;3.35
60615;BMP280;46444;45.590;5.284;2022-12-10T15:39:12;98260.16;;;3.32
60615;BMP280;46444;45.590;5.284;2022-12-10T15:41:51;98252.81;;;3.34
60615;BMP280;46444;45.590;5.284;2022-12-10T15:49:38;98247.34;;;3.29
60615;BMP280;46444;45.590;5.284;2022-12-10T15:52:04;98255.06;;;3.44
60615;BMP280;46444;45.590;5.284;2022-12-10T15:54:37;98258.94;;;3.35
60615;BMP280;46444;45.590;5.284;2022-12-10T15:59:45;98261.75;;;3.53
60615;BMP280;46444;45.590;5.284;2022-12-10T16:04:56;98263.00;;;3.37
60615;BMP280;46444;45.590;5.284;2022-12-10T16:07:21;98256.50;;;3.33
60615;BMP280;46444;45.590;5.284;2022-12-10T16:09:47;98255.66;;;3.39
60615;BMP280;46444;45.590;5.284;2022-12-10T16:12:13;98273.34;;;3.39
60615;BMP280;46444;45.590;5.284;2022-12-10T16:14:51;98254.25;;;3.37
60615;BMP280;46444;45.590;5.284;2022-12-10T16:17:18;98262.56;;;3.40
60615;BMP280;46444;45.590;5.284;2022-12-10T16:19:44;98258.09;;;3.47